Welch, Minnesota
Current Conditions -  °F | °C
As of 6:10 AM on Friday 28 Nov 2014 (Local Time) from KRGK Reporting Station
Overcast Overcast  
Wind Chill:   Ceiling: 9000
Heat Index: 14°   Visibility: 10mi
Dew Point:   Wind: 7mph
Humidity: 79%   Direction: 150°SSE
Pressure: 30.05"   Gusts: NA
Location:  44.57°N, 92.74°W
Report Text: KRGK 281210Z AUTO 15006KT 10SM OVC090 M10/M13 A3005 RMK AO2
Loading
Personal Weather Stations






























Interactive Weather Map New forecast layout! Learn more

10-Day Weather Forecast

Advertisements
Track Severe Weather on mobile